createdAt,value
2019-05-29T00:00:48.974Z,2.50
2019-05-29T00:01:48.925Z,2.70
2019-05-29T00:02:48.891Z,2.60
2019-05-29T00:03:48.866Z,3.00
2019-05-29T00:04:48.828Z,2.50
2019-05-29T00:05:49.805Z,2.90
2019-05-29T00:06:48.783Z,2.80
2019-05-29T00:07:48.756Z,2.40
2019-05-29T00:08:48.801Z,2.50
2019-05-29T00:09:48.699Z,2.70
2019-05-29T00:10:48.659Z,2.20
2019-05-29T00:11:49.643Z,2.60
2019-05-29T00:12:48.603Z,2.50
2019-05-29T00:13:49.602Z,2.80
2019-05-29T00:14:48.549Z,2.80
2019-05-29T00:15:48.528Z,2.60
2019-05-29T00:16:48.490Z,2.70
2019-05-29T00:17:48.455Z,2.60
2019-05-29T00:18:48.436Z,3.00
2019-05-29T00:19:48.402Z,2.80
2019-05-29T00:20:48.373Z,2.80
2019-05-29T00:21:49.352Z,3.00
2019-05-29T00:22:48.317Z,2.90
2019-05-29T00:23:48.291Z,2.60
2019-05-29T00:24:48.259Z,2.90
2019-05-29T00:25:48.228Z,2.60
2019-05-29T00:26:48.206Z,2.80
2019-05-29T00:27:48.178Z,2.90
2019-05-29T00:28:48.147Z,3.00
2019-05-29T00:29:50.123Z,2.50
2019-05-29T00:30:48.089Z,3.00
2019-05-29T00:31:56.087Z,3.20
2019-05-29T00:32:48.025Z,3.00
2019-05-29T00:33:48.000Z,2.90
2019-05-29T00:34:47.966Z,3.20
2019-05-29T00:35:47.954Z,3.00
2019-05-29T00:36:47.908Z,3.10
2019-05-29T00:37:48.928Z,2.80
2019-05-29T00:38:48.090Z,2.80
2019-05-29T00:39:54.535Z,2.80
2019-05-29T00:40:47.794Z,2.70
2019-05-29T00:41:54.526Z,2.80
2019-05-29T00:42:47.733Z,2.60
2019-05-29T00:43:47.724Z,3.00
2019-05-29T00:44:47.673Z,2.70
2019-05-29T00:45:47.655Z,3.10
2019-05-29T00:46:47.644Z,2.90
2019-05-29T00:47:47.591Z,3.10
2019-05-29T00:48:47.559Z,3.00
2019-05-29T00:49:48.538Z,3.00
2019-05-29T00:50:47.508Z,2.80
2019-05-29T00:51:49.485Z,2.70
2019-05-29T00:52:47.445Z,3.80
2019-05-29T00:53:47.428Z,3.00
2019-05-29T00:54:47.401Z,3.10
2019-05-29T00:55:47.362Z,2.70
2019-05-29T00:56:49.341Z,2.70
2019-05-29T00:57:47.301Z,3.00
2019-05-29T00:58:49.276Z,3.10
2019-05-29T00:59:47.266Z,2.90
2019-05-29T01:00:47.216Z,3.60
2019-05-29T01:01:47.195Z,3.10
2019-05-29T01:02:47.324Z,3.00
2019-05-29T01:03:47.134Z,3.30
2019-05-29T01:04:48.121Z,2.90
2019-05-29T01:05:47.063Z,3.10
2019-05-29T01:06:47.043Z,3.10
2019-05-29T01:07:47.013Z,3.00
2019-05-29T01:08:53.527Z,3.30
2019-05-29T01:09:46.957Z,2.70
2019-05-29T01:10:46.940Z,2.90
2019-05-29T01:11:46.896Z,3.10
2019-05-29T01:12:53.554Z,3.00
2019-05-29T01:13:46.842Z,3.30
2019-05-29T01:15:01.526Z,3.30
2019-05-29T01:15:46.790Z,3.20
2019-05-29T01:16:46.767Z,4.00
2019-05-29T01:17:46.720Z,3.20
2019-05-29T01:18:46.707Z,3.10
2019-05-29T01:19:46.668Z,3.30
2019-05-29T01:20:46.638Z,3.40
2019-05-29T01:21:46.627Z,3.50
2019-05-29T01:22:47.587Z,3.20
2019-05-29T01:23:46.542Z,3.50
2019-05-29T01:24:46.529Z,3.40
2019-05-29T01:25:46.477Z,3.60
2019-05-29T01:26:46.462Z,3.50
2019-05-29T01:27:46.428Z,3.40
2019-05-29T01:28:46.408Z,3.80
2019-05-29T01:29:46.371Z,3.50
2019-05-29T01:30:46.348Z,3.50
2019-05-29T01:31:46.309Z,3.60
2019-05-29T01:32:46.305Z,3.40
2019-05-29T01:33:46.257Z,3.60
2019-05-29T01:34:46.232Z,3.40
2019-05-29T01:35:46.203Z,3.10
2019-05-29T01:36:46.185Z,3.80
2019-05-29T01:37:46.157Z,3.30
2019-05-29T01:38:46.110Z,3.40
2019-05-29T01:39:46.081Z,3.60
2019-05-29T01:40:46.067Z,3.70
2019-05-29T01:41:46.026Z,3.40
2019-05-29T01:42:49.628Z,3.50
2019-05-29T01:43:45.965Z,3.50
2019-05-29T01:44:45.939Z,3.80
2019-05-29T01:45:45.920Z,3.70
2019-05-29T01:46:45.885Z,4.00
2019-05-29T01:47:45.849Z,4.20
2019-05-29T01:48:45.856Z,3.90
2019-05-29T01:49:45.785Z,4.40
2019-05-29T01:50:46.772Z,4.30
2019-05-29T01:51:45.736Z,4.60
2019-05-29T01:52:45.739Z,4.20
2019-05-29T01:53:45.694Z,3.80
2019-05-29T01:54:45.645Z,4.20
2019-05-29T01:55:45.617Z,4.20
2019-05-29T01:56:45.591Z,4.60
2019-05-29T01:57:45.555Z,4.30
2019-05-29T01:58:45.534Z,4.30
2019-05-29T01:59:45.510Z,4.50
2019-05-29T02:00:45.474Z,4.70
2019-05-29T02:01:45.439Z,3.90
2019-05-29T02:02:45.417Z,4.60
2019-05-29T02:03:45.402Z,4.50
2019-05-29T02:04:45.355Z,3.90
2019-05-29T02:05:45.324Z,4.30
2019-05-29T02:06:45.299Z,3.80
2019-05-29T02:07:45.273Z,4.00
2019-05-29T02:08:45.236Z,4.30
2019-05-29T02:09:45.207Z,4.50
2019-05-29T02:10:46.182Z,4.00
2019-05-29T02:11:45.157Z,4.60
2019-05-29T02:12:45.130Z,4.60
2019-05-29T02:13:45.086Z,4.40
2019-05-29T02:14:45.067Z,4.40
2019-05-29T02:15:45.032Z,4.20
2019-05-29T02:16:45.068Z,4.40
2019-05-29T02:17:44.970Z,4.60
2019-05-29T02:18:44.962Z,4.40
2019-05-29T02:19:44.910Z,4.60
2019-05-29T02:20:44.883Z,4.50
2019-05-29T02:21:44.855Z,4.30
2019-05-29T02:22:44.837Z,4.60
2019-05-29T02:23:44.795Z,4.30
2019-05-29T02:24:45.789Z,4.50
2019-05-29T02:25:44.742Z,4.30
2019-05-29T02:26:45.711Z,4.20
2019-05-29T02:27:44.680Z,4.30
2019-05-29T02:28:44.661Z,4.10
2019-05-29T02:29:44.618Z,4.20
2019-05-29T02:30:45.597Z,4.40
2019-05-29T02:31:44.558Z,4.20
2019-05-29T02:32:45.546Z,4.70
2019-05-29T02:33:44.506Z,3.90
2019-05-29T02:34:45.476Z,4.20
2019-05-29T02:35:44.447Z,4.90
2019-05-29T02:36:44.424Z,4.70
2019-05-29T02:37:44.389Z,4.70
2019-05-29T02:38:53.062Z,4.50
2019-05-29T02:39:44.329Z,4.30
2019-05-29T02:40:44.303Z,4.60
2019-05-29T02:41:44.275Z,4.70
2019-05-29T02:42:44.238Z,4.50
2019-05-29T02:43:44.210Z,4.60
2019-05-29T02:44:44.179Z,4.60
2019-05-29T02:45:54.266Z,4.60
2019-05-29T02:46:44.129Z,4.90
2019-05-29T02:47:44.101Z,4.40
2019-05-29T02:48:45.061Z,4.60
2019-05-29T02:49:44.036Z,4.70
2019-05-29T02:50:44.011Z,4.50
2019-05-29T02:51:43.972Z,4.30
2019-05-29T02:52:44.950Z,5.30
2019-05-29T02:53:43.916Z,4.70
2019-05-29T02:54:44.895Z,4.80
2019-05-29T02:55:43.858Z,4.50
2019-05-29T02:56:43.829Z,4.60
2019-05-29T02:57:43.815Z,5.00
2019-05-29T02:58:43.794Z,4.60
2019-05-29T02:59:43.731Z,4.80
2019-05-29T03:00:44.722Z,5.20
2019-05-29T03:01:43.676Z,4.80
2019-05-29T03:02:43.708Z,4.50
2019-05-29T03:03:43.619Z,5.20
2019-05-29T03:04:43.600Z,4.60
2019-05-29T03:05:43.561Z,5.00
2019-05-29T03:06:43.533Z,4.90
2019-05-29T03:07:43.504Z,5.70
2019-05-29T03:08:43.475Z,4.90
2019-05-29T03:09:43.444Z,5.70
2019-05-29T03:10:43.423Z,5.30
2019-05-29T03:11:43.385Z,5.70
2019-05-29T03:12:43.363Z,5.40
2019-05-29T03:13:43.326Z,4.90
2019-05-29T03:14:43.301Z,5.10
2019-05-29T03:15:43.272Z,5.00
2019-05-29T03:16:44.248Z,5.40
2019-05-29T03:17:43.212Z,5.00
2019-05-29T03:18:44.194Z,4.80
2019-05-29T03:19:43.149Z,5.60
2019-05-29T03:20:43.120Z,5.40
2019-05-29T03:21:43.090Z,5.50
2019-05-29T03:22:43.061Z,5.60
2019-05-29T03:23:43.030Z,5.90
2019-05-29T03:24:43.009Z,5.60
2019-05-29T03:25:42.986Z,5.30
2019-05-29T03:26:42.960Z,5.50
2019-05-29T03:27:42.913Z,5.30
2019-05-29T03:28:42.885Z,5.40
2019-05-29T03:29:42.854Z,6.00
2019-05-29T03:30:46.218Z,5.40
2019-05-29T03:31:47.131Z,5.80
2019-05-29T03:32:47.700Z,5.50
2019-05-29T03:33:49.048Z,5.40
2019-05-29T03:34:46.964Z,5.50
2019-05-29T03:35:47.486Z,5.70
2019-05-29T03:36:47.739Z,5.60
2019-05-29T03:37:42.612Z,5.50
2019-05-29T03:38:42.610Z,5.40
2019-05-29T03:39:42.557Z,5.50
2019-05-29T03:40:42.539Z,5.20
2019-05-29T03:41:42.499Z,5.10
2019-05-29T03:42:42.544Z,5.60
2019-05-29T03:43:42.447Z,5.00
2019-05-29T03:44:43.415Z,5.00
2019-05-29T03:45:42.389Z,5.00
2019-05-29T03:46:45.666Z,4.80
2019-05-29T03:47:42.346Z,4.80
2019-05-29T03:48:43.301Z,5.40
2019-05-29T03:49:42.266Z,4.60
2019-05-29T03:50:42.245Z,5.10
2019-05-29T03:51:42.201Z,5.70
2019-05-29T03:52:42.176Z,4.70
2019-05-29T03:53:42.152Z,5.50
2019-05-29T03:54:42.114Z,5.20
2019-05-29T03:55:42.084Z,5.50
2019-05-29T03:56:42.060Z,5.10
2019-05-29T03:57:42.024Z,5.20
2019-05-29T03:58:42.071Z,4.70
2019-05-29T03:59:41.967Z,4.70
2019-05-29T04:00:46.692Z,4.70
2019-05-29T04:01:41.921Z,5.60
2019-05-29T04:02:42.879Z,5.00
2019-05-29T04:03:41.858Z,5.30
2019-05-29T04:04:41.817Z,4.80
2019-05-29T04:05:41.786Z,4.50
2019-05-29T04:06:41.768Z,4.80
2019-05-29T04:07:41.724Z,4.70
2019-05-29T04:08:41.706Z,5.20
2019-05-29T04:09:41.734Z,4.60
2019-05-29T04:10:41.663Z,5.00
2019-05-29T04:11:41.625Z,4.80
2019-05-29T04:12:42.588Z,5.30
2019-05-29T04:13:41.557Z,5.00
2019-05-29T04:14:41.521Z,4.90
2019-05-29T04:15:41.489Z,4.90
2019-05-29T04:16:58.286Z,4.80
2019-05-29T04:17:41.438Z,4.70
2019-05-29T04:18:41.452Z,5.30
2019-05-29T04:19:41.375Z,5.10
2019-05-29T04:20:41.356Z,5.50
2019-05-29T04:21:41.311Z,5.10
2019-05-29T04:22:41.295Z,5.00
2019-05-29T04:23:41.260Z,4.90
2019-05-29T04:24:41.240Z,5.30
2019-05-29T04:25:43.039Z,5.20
2019-05-29T04:26:41.173Z,5.80
2019-05-29T04:27:41.142Z,5.40
2019-05-29T04:28:41.113Z,5.30
2019-05-29T04:29:41.071Z,4.80
2019-05-29T04:30:41.058Z,4.60
2019-05-29T04:31:41.019Z,4.70
2019-05-29T04:32:40.999Z,5.20
2019-05-29T04:33:40.963Z,5.30
2019-05-29T04:34:40.937Z,4.50
2019-05-29T04:35:40.906Z,5.40
2019-05-29T04:36:40.876Z,5.00
2019-05-29T04:37:40.842Z,5.00
2019-05-29T04:38:40.859Z,4.70
2019-05-29T04:39:40.779Z,5.50
2019-05-29T04:40:40.870Z,5.40
2019-05-29T04:41:40.727Z,5.40
2019-05-29T04:42:40.779Z,5.60
2019-05-29T04:43:40.663Z,5.70
2019-05-29T04:44:41.234Z,5.90
2019-05-29T04:45:40.601Z,5.60
2019-05-29T04:46:40.818Z,5.30
2019-05-29T04:47:40.547Z,5.60
2019-05-29T04:48:40.741Z,5.30
2019-05-29T04:49:40.496Z,5.30
2019-05-29T04:50:40.861Z,5.30
2019-05-29T04:51:40.433Z,5.50
2019-05-29T04:52:40.647Z,4.90
2019-05-29T04:53:40.366Z,5.40
2019-05-29T04:54:40.395Z,4.50
2019-05-29T04:55:40.328Z,4.80
2019-05-29T04:56:40.298Z,5.00
2019-05-29T04:57:40.250Z,5.30
2019-05-29T04:58:40.311Z,5.10
2019-05-29T04:59:40.191Z,4.50
2019-05-29T05:00:58.199Z,5.30
2019-05-29T05:01:40.127Z,5.00
2019-05-29T05:02:40.133Z,4.40
2019-05-29T05:03:40.071Z,4.70
2019-05-29T05:04:40.056Z,4.80
2019-05-29T05:05:40.013Z,5.00
2019-05-29T05:06:40.061Z,4.60
2019-05-29T05:07:39.953Z,5.20
2019-05-29T05:08:46.628Z,5.00
2019-05-29T05:09:39.899Z,5.00
2019-05-29T05:10:41.367Z,4.50
2019-05-29T05:11:39.834Z,4.50
2019-05-29T05:12:40.198Z,4.60
2019-05-29T05:13:39.822Z,4.60
2019-05-29T05:14:39.902Z,4.50
2019-05-29T05:15:40.112Z,4.40
2019-05-29T05:16:40.010Z,5.40
2019-05-29T05:17:40.147Z,4.40
2019-05-29T05:18:40.245Z,4.40
2019-05-29T05:19:40.125Z,4.80
2019-05-29T05:20:40.352Z,4.80
2019-05-29T05:21:40.253Z,4.70
2019-05-29T05:22:40.977Z,4.30
2019-05-29T05:23:40.565Z,4.00
2019-05-29T05:24:43.438Z,4.40
2019-05-29T05:25:40.825Z,4.60
2019-05-29T05:26:40.471Z,4.30
2019-05-29T05:27:40.594Z,4.10
2019-05-29T05:28:42.182Z,4.30
2019-05-29T05:29:40.420Z,4.80
2019-05-29T05:30:40.639Z,4.20
2019-05-29T05:31:39.260Z,4.70
2019-05-29T05:32:39.329Z,4.00
2019-05-29T05:33:39.189Z,4.00
2019-05-29T05:34:39.415Z,4.00
2019-05-29T05:35:39.140Z,4.80
2019-05-29T05:36:39.145Z,4.70
2019-05-29T05:37:39.067Z,4.00
2019-05-29T05:38:41.079Z,4.10
2019-05-29T05:39:39.123Z,4.40
2019-05-29T05:40:41.289Z,4.40
2019-05-29T05:41:39.049Z,4.20
2019-05-29T05:42:41.164Z,4.20
2019-05-29T05:43:39.037Z,4.40
2019-05-29T05:44:39.113Z,4.80
2019-05-29T05:45:39.226Z,4.50
2019-05-29T05:46:47.715Z,4.80
2019-05-29T05:47:50.463Z,5.20
2019-05-29T05:48:39.252Z,5.10
2019-05-29T05:49:39.535Z,4.20
2019-05-29T05:50:39.409Z,4.80
2019-05-29T05:51:42.778Z,5.30
2019-05-29T05:52:39.498Z,4.30
2019-05-29T05:53:39.481Z,4.60
2019-05-29T05:54:39.554Z,4.70
2019-05-29T05:55:39.824Z,4.00
2019-05-29T05:56:39.653Z,3.80
2019-05-29T05:57:39.524Z,4.10
2019-05-29T05:58:39.819Z,3.90
2019-05-29T05:59:38.426Z,4.10
2019-05-29T06:00:38.438Z,4.20
2019-05-29T06:01:38.365Z,3.90
2019-05-29T06:02:38.342Z,4.60
2019-05-29T06:03:38.416Z,5.00
2019-05-29T06:04:38.270Z,4.40
2019-05-29T06:05:38.350Z,4.00
2019-05-29T06:06:38.214Z,4.00
2019-05-29T06:07:38.305Z,3.80
2019-05-29T06:08:38.164Z,4.00
2019-05-29T06:09:38.268Z,4.00
2019-05-29T06:10:38.217Z,4.00
2019-05-29T06:11:38.351Z,4.30
2019-05-29T06:12:38.629Z,4.70
2019-05-29T06:13:38.394Z,5.10
2019-05-29T06:14:38.456Z,4.30
2019-05-29T06:15:38.459Z,4.10
2019-05-29T06:16:38.623Z,4.30
2019-05-29T06:17:38.776Z,4.00
2019-05-29T06:18:38.498Z,3.60
2019-05-29T06:19:38.993Z,4.50
2019-05-29T06:20:39.009Z,4.00
2019-05-29T06:21:38.803Z,3.90
2019-05-29T06:22:38.984Z,3.70
2019-05-29T06:23:38.836Z,3.10
2019-05-29T06:24:38.809Z,3.50
2019-05-29T06:25:39.942Z,4.00
2019-05-29T06:26:39.029Z,3.30
2019-05-29T06:27:37.588Z,3.30
2019-05-29T06:28:37.608Z,3.30
2019-05-29T06:29:37.529Z,3.50
2019-05-29T06:30:39.331Z,3.20
2019-05-29T06:31:37.480Z,4.40
2019-05-29T06:32:37.531Z,3.20
2019-05-29T06:33:37.459Z,3.20
2019-05-29T06:34:37.541Z,2.60
2019-05-29T06:35:37.635Z,2.60
2019-05-29T06:36:37.932Z,3.30
2019-05-29T06:37:44.178Z,2.60
2019-05-29T06:38:37.650Z,2.60
2019-05-29T06:39:37.657Z,2.30
2019-05-29T06:40:38.194Z,2.60
2019-05-29T06:41:37.802Z,2.50
2019-05-29T06:42:37.813Z,2.60
2019-05-29T06:43:39.872Z,3.30
2019-05-29T06:44:39.319Z,2.60
2019-05-29T06:45:37.820Z,2.30
2019-05-29T06:46:38.342Z,2.10
2019-05-29T06:47:38.640Z,2.50
2019-05-29T06:48:44.802Z,2.40
2019-05-29T06:49:37.956Z,2.60
2019-05-29T06:50:37.349Z,4.30
2019-05-29T06:51:43.667Z,3.20
2019-05-29T06:52:37.409Z,2.70
2019-05-29T06:53:37.941Z,2.80
2019-05-29T06:54:37.807Z,3.30
2019-05-29T06:55:37.926Z,2.30
2019-05-29T06:56:37.740Z,2.60
2019-05-29T06:57:37.988Z,2.80
2019-05-29T06:58:37.962Z,2.10
2019-05-29T06:59:36.660Z,2.30
2019-05-29T07:00:38.106Z,2.00
2019-05-29T07:01:37.387Z,2.40
2019-05-29T07:02:36.576Z,2.10
2019-05-29T07:03:37.634Z,2.20
2019-05-29T07:04:36.512Z,1.90
2019-05-29T07:05:37.681Z,2.10
2019-05-29T07:06:36.567Z,2.00
2019-05-29T07:07:36.421Z,1.80
2019-05-29T07:08:39.926Z,1.80
2019-05-29T07:09:36.880Z,1.90
2019-05-29T07:10:36.479Z,1.80
2019-05-29T07:11:37.100Z,1.80
2019-05-29T07:12:36.422Z,2.00
2019-05-29T07:13:38.391Z,1.70
2019-05-29T07:14:36.432Z,2.10
2019-05-29T07:15:36.449Z,1.50
2019-05-29T07:16:45.367Z,1.70
2019-05-29T07:17:36.372Z,1.50
2019-05-29T07:18:36.535Z,1.70
2019-05-29T07:19:48.946Z,2.00
2019-05-29T07:20:36.545Z,1.40
2019-05-29T07:21:36.727Z,1.60
2019-05-29T07:22:36.975Z,1.70
2019-05-29T07:23:36.633Z,1.80
2019-05-29T07:24:37.007Z,4.60
2019-05-29T07:25:36.802Z,2.60
2019-05-29T07:26:36.925Z,1.70
2019-05-29T07:27:36.857Z,1.80
2019-05-29T07:28:37.199Z,1.60
2019-05-29T07:29:36.978Z,1.80
2019-05-29T07:30:37.248Z,1.80
2019-05-29T07:31:36.817Z,1.80
2019-05-29T07:32:38.064Z,1.70
2019-05-29T07:33:35.644Z,1.70
2019-05-29T07:34:51.303Z,2.60
2019-05-29T07:35:35.579Z,1.90
2019-05-29T07:36:35.570Z,1.90
2019-05-29T07:37:35.517Z,1.70
2019-05-29T07:38:35.495Z,1.70
2019-05-29T07:39:35.471Z,1.50
2019-05-29T07:40:35.961Z,1.60
2019-05-29T07:41:35.413Z,1.80
2019-05-29T07:42:35.383Z,1.80
2019-05-29T07:43:35.352Z,1.50
2019-05-29T07:44:35.318Z,1.80
2019-05-29T07:45:35.397Z,1.80
2019-05-29T07:46:35.265Z,1.80
2019-05-29T07:47:35.227Z,1.60
2019-05-29T07:48:35.200Z,1.30
2019-05-29T07:49:38.906Z,1.50
2019-05-29T07:50:35.135Z,1.40
2019-05-29T07:51:35.135Z,1.40
2019-05-29T07:52:35.107Z,1.60
2019-05-29T07:53:35.142Z,1.60
2019-05-29T07:54:35.019Z,3.10
2019-05-29T07:55:35.059Z,1.60
2019-05-29T07:56:34.961Z,1.50
2019-05-29T07:57:34.968Z,1.80
2019-05-29T07:58:34.908Z,1.40
2019-05-29T07:59:34.982Z,1.40
2019-05-29T08:00:37.961Z,1.90
2019-05-29T08:01:34.819Z,1.50
2019-05-29T08:02:34.786Z,1.40
2019-05-29T08:03:34.810Z,1.30
2019-05-29T08:04:34.722Z,1.80
2019-05-29T08:05:34.797Z,1.60
2019-05-29T08:06:34.667Z,1.30
2019-05-29T08:07:34.715Z,1.60
2019-05-29T08:08:34.602Z,1.30
2019-05-29T08:09:34.632Z,1.70
2019-05-29T08:10:34.543Z,2.20
2019-05-29T08:11:36.593Z,3.90
2019-05-29T08:12:34.493Z,1.40
2019-05-29T08:13:34.466Z,1.50
2019-05-29T08:14:34.426Z,1.50
2019-05-29T08:15:42.918Z,1.60
2019-05-29T08:16:34.358Z,1.30
2019-05-29T08:17:34.344Z,1.60
2019-05-29T08:18:34.325Z,1.50
2019-05-29T08:19:34.268Z,1.50
2019-05-29T08:20:34.258Z,1.40
2019-05-29T08:21:34.218Z,1.40
2019-05-29T08:22:35.003Z,1.40
2019-05-29T08:23:34.155Z,1.50
2019-05-29T08:24:34.123Z,2.10
2019-05-29T08:25:34.134Z,1.70
2019-05-29T08:26:34.071Z,2.20
2019-05-29T08:27:34.043Z,2.30
2019-05-29T08:28:34.004Z,3.40
2019-05-29T08:29:33.971Z,1.80
2019-05-29T08:30:33.944Z,1.40
2019-05-29T08:31:33.914Z,2.80
2019-05-29T08:32:33.982Z,2.80
2019-05-29T08:33:33.871Z,1.50
2019-05-29T08:34:33.848Z,1.50
2019-05-29T08:35:33.794Z,2.40
2019-05-29T08:36:33.766Z,1.40
2019-05-29T08:37:33.734Z,1.30
2019-05-29T08:38:33.705Z,1.80
2019-05-29T08:39:36.886Z,2.80
2019-05-29T08:40:33.654Z,3.10
2019-05-29T08:41:33.629Z,1.80
2019-05-29T08:42:33.583Z,1.90
2019-05-29T08:43:33.660Z,2.10
2019-05-29T08:44:33.532Z,1.70
2019-05-29T08:45:33.505Z,1.30
2019-05-29T08:46:33.662Z,1.50
2019-05-29T08:47:33.439Z,1.00
2019-05-29T08:48:33.403Z,1.50
2019-05-29T08:49:33.405Z,2.40
2019-05-29T08:50:33.363Z,2.60
2019-05-29T08:51:33.381Z,1.70
2019-05-29T08:52:33.293Z,1.10
2019-05-29T08:53:33.285Z,2.10
2019-05-29T08:54:33.235Z,1.10
2019-05-29T08:55:33.204Z,8.30
2019-05-29T08:56:33.185Z,2.10
2019-05-29T08:57:33.148Z,1.70
2019-05-29T08:58:33.124Z,1.80
2019-05-29T08:59:33.088Z,1.30
2019-05-29T09:00:33.062Z,1.60
2019-05-29T09:01:33.036Z,1.50
2019-05-29T09:02:33.014Z,2.00
2019-05-29T09:03:32.972Z,2.00
2019-05-29T09:04:32.963Z,1.70
2019-05-29T09:05:32.920Z,1.60
2019-05-29T09:06:32.886Z,1.60
2019-05-29T09:07:32.858Z,1.30
2019-05-29T09:08:32.824Z,1.60
2019-05-29T09:09:32.897Z,1.20
2019-05-29T09:10:32.768Z,1.80
2019-05-29T09:11:32.808Z,1.30
2019-05-29T09:12:32.709Z,1.60
2019-05-29T09:13:32.713Z,1.50
2019-05-29T09:14:32.652Z,1.70
2019-05-29T09:15:32.620Z,1.80
2019-05-29T09:16:32.598Z,1.30
2019-05-29T09:17:34.577Z,1.50
2019-05-29T09:18:32.558Z,1.60
2019-05-29T09:19:32.522Z,2.20
2019-05-29T09:21:00.071Z,1.40
2019-05-29T09:21:32.667Z,1.40
2019-05-29T09:22:32.437Z,1.30
2019-05-29T09:23:32.404Z,1.60
2019-05-29T09:24:32.367Z,1.80
2019-05-29T09:25:32.338Z,2.20
2019-05-29T09:26:32.328Z,2.60
2019-05-29T09:27:32.302Z,1.80
2019-05-29T09:28:32.253Z,1.70
2019-05-29T09:29:32.223Z,2.70
2019-05-29T09:30:32.219Z,1.80
2019-05-29T09:31:32.186Z,1.60
2019-05-29T09:32:49.623Z,1.90
2019-05-29T09:33:32.135Z,2.60
2019-05-29T09:34:32.085Z,2.50
2019-05-29T09:35:32.054Z,1.40
2019-05-29T09:36:32.040Z,1.40
2019-05-29T09:37:32.065Z,1.50
2019-05-29T09:38:31.973Z,1.90
2019-05-29T09:39:31.937Z,1.90
2019-05-29T09:40:31.931Z,1.50
2019-05-29T09:41:31.880Z,1.70
2019-05-29T09:42:32.928Z,1.20
2019-05-29T09:43:31.880Z,1.60
2019-05-29T09:44:38.861Z,1.60
2019-05-29T09:45:31.769Z,1.60
2019-05-29T09:46:31.837Z,1.70
2019-05-29T09:47:31.710Z,1.50
2019-05-29T09:48:31.953Z,1.40
2019-05-29T09:49:31.657Z,1.50
2019-05-29T09:50:48.843Z,1.70
2019-05-29T09:51:31.671Z,1.60
2019-05-29T09:52:31.582Z,1.60
2019-05-29T09:53:31.553Z,1.40
2019-05-29T09:54:31.705Z,3.10
2019-05-29T09:55:31.512Z,2.10
2019-05-29T09:56:31.453Z,1.70
2019-05-29T09:57:31.423Z,3.70
2019-05-29T09:58:31.421Z,1.60
2019-05-29T09:59:31.371Z,1.70
2019-05-29T10:00:31.353Z,1.30
2019-05-29T10:01:31.310Z,1.50
2019-05-29T10:02:31.300Z,1.50
2019-05-29T10:03:31.257Z,1.70
2019-05-29T10:04:31.223Z,2.70
2019-05-29T10:05:31.199Z,1.40
2019-05-29T10:06:31.178Z,1.50
2019-05-29T10:07:31.185Z,1.90
2019-05-29T10:08:31.143Z,1.40
2019-05-29T10:09:31.093Z,1.40
2019-05-29T10:10:31.069Z,1.70
2019-05-29T10:11:31.053Z,1.60
2019-05-29T10:12:31.002Z,1.50
2019-05-29T10:13:30.967Z,1.50
2019-05-29T10:14:30.948Z,1.90
2019-05-29T10:15:30.946Z,2.20
2019-05-29T10:16:30.979Z,1.30
2019-05-29T10:17:31.100Z,1.40
2019-05-29T10:18:32.670Z,1.40
2019-05-29T10:19:30.861Z,2.40
2019-05-29T10:20:30.815Z,1.30
2019-05-29T10:21:40.119Z,1.60
2019-05-29T10:22:30.725Z,1.40
2019-05-29T10:23:30.707Z,2.30
2019-05-29T10:24:32.467Z,1.80
2019-05-29T10:25:30.648Z,1.30
2019-05-29T10:26:30.633Z,1.70
2019-05-29T10:27:30.593Z,1.60
2019-05-29T10:29:30.620Z,1.50
2019-05-29T10:30:30.509Z,1.90
2019-05-29T10:31:30.497Z,2.60
2019-05-29T10:32:30.483Z,1.90
2019-05-29T10:32:52.796Z,1.40
2019-05-29T10:33:30.438Z,2.30
2019-05-29T10:34:30.397Z,2.20
2019-05-29T10:35:30.378Z,1.80
2019-05-29T10:36:30.344Z,2.50
2019-05-29T10:37:30.327Z,1.70
2019-05-29T10:38:30.372Z,1.60
2019-05-29T10:39:30.255Z,1.60
2019-05-29T10:40:30.241Z,1.70
2019-05-29T10:41:30.212Z,2.00
2019-05-29T10:42:30.170Z,1.60
2019-05-29T10:43:34.006Z,1.90
2019-05-29T10:44:30.205Z,1.50
2019-05-29T10:45:30.106Z,1.50
2019-05-29T10:46:30.115Z,1.80
2019-05-29T10:47:30.041Z,2.60
2019-05-29T10:48:31.056Z,1.60
2019-05-29T10:49:29.990Z,1.70
2019-05-29T10:50:30.032Z,1.30
2019-05-29T10:51:29.943Z,1.20
2019-05-29T10:52:29.945Z,1.40
2019-05-29T10:53:29.874Z,1.30
2019-05-29T10:54:29.985Z,2.90
2019-05-29T10:55:29.857Z,1.80
2019-05-29T10:56:29.914Z,2.40
2019-05-29T10:57:29.790Z,2.10
2019-05-29T10:58:29.883Z,2.00
2019-05-29T10:59:29.720Z,1.70
2019-05-29T11:00:29.779Z,2.00
2019-05-29T11:01:29.678Z,1.70
2019-05-29T11:02:29.694Z,1.70
2019-05-29T11:03:29.601Z,1.60
2019-05-29T11:04:29.693Z,1.70
2019-05-29T11:05:29.563Z,1.60
2019-05-29T11:06:29.607Z,1.80
2019-05-29T11:07:29.486Z,1.60
2019-05-29T11:08:29.521Z,1.50
2019-05-29T11:09:43.373Z,1.60
2019-05-29T11:10:29.421Z,1.70
2019-05-29T11:11:29.435Z,2.00
2019-05-29T11:12:29.356Z,2.20
2019-05-29T11:13:29.494Z,1.70
2019-05-29T11:14:29.307Z,1.90
2019-05-29T11:15:29.427Z,1.80
2019-05-29T11:16:29.244Z,2.00
2019-05-29T11:17:29.278Z,2.00
2019-05-29T11:18:29.206Z,2.00
2019-05-29T11:19:29.301Z,1.80
2019-05-29T11:20:29.141Z,1.80
2019-05-29T11:21:29.212Z,2.00
2019-05-29T11:22:29.090Z,1.80
2019-05-29T11:23:29.124Z,1.80
2019-05-29T11:24:29.053Z,2.60
2019-05-29T11:25:29.137Z,1.80
2019-05-29T11:26:28.978Z,1.90
2019-05-29T11:27:29.047Z,1.80
2019-05-29T11:28:28.926Z,1.80
2019-05-29T11:29:28.958Z,1.80
2019-05-29T11:30:28.960Z,1.70
2019-05-29T11:31:29.009Z,1.40
2019-05-29T11:32:28.841Z,2.00
2019-05-29T11:33:28.893Z,1.90
2019-05-29T11:34:28.777Z,1.80
2019-05-29T11:35:28.792Z,1.50
2019-05-29T11:36:28.724Z,1.40
2019-05-29T11:37:28.808Z,1.60
2019-05-29T11:38:28.653Z,1.70
2019-05-29T11:39:28.727Z,1.50
2019-05-29T11:40:28.846Z,1.70
2019-05-29T11:41:28.625Z,1.60
2019-05-29T11:42:28.567Z,1.80
2019-05-29T11:43:28.649Z,1.70
2019-05-29T11:44:28.487Z,1.60
2019-05-29T11:45:28.574Z,1.70
2019-05-29T11:46:28.441Z,1.60
2019-05-29T11:47:28.461Z,1.70
2019-05-29T11:48:28.383Z,1.50
2019-05-29T11:49:28.475Z,1.70
2019-05-29T11:50:28.322Z,1.70
2019-05-29T11:51:29.411Z,1.70
2019-05-29T11:52:41.677Z,1.80
2019-05-29T11:53:28.256Z,1.90
2019-05-29T11:54:28.317Z,1.80
2019-05-29T11:55:28.201Z,1.90
2019-05-29T11:56:28.320Z,1.90
2019-05-29T11:57:28.145Z,1.90
2019-05-29T11:58:31.452Z,2.10
2019-05-29T11:59:28.130Z,1.90
2019-05-29T12:00:28.135Z,1.80
2019-05-29T12:01:28.040Z,1.40
2019-05-29T12:02:28.009Z,1.90
2019-05-29T12:03:28.056Z,1.60
2019-05-29T12:04:27.973Z,1.70
2019-05-29T12:05:27.919Z,1.60
2019-05-29T12:06:28.993Z,2.10
2019-05-29T12:07:27.881Z,1.90
2019-05-29T12:08:27.844Z,1.50
2019-05-29T12:09:32.915Z,1.80
2019-05-29T12:10:27.789Z,1.80
2019-05-29T12:11:27.804Z,1.70
2019-05-29T12:12:27.767Z,1.50
2019-05-29T12:13:27.831Z,1.70
2019-05-29T12:14:27.694Z,1.50
2019-05-29T12:15:27.722Z,1.40
2019-05-29T12:16:27.638Z,2.00
2019-05-29T12:17:27.843Z,2.50
2019-05-29T12:18:27.639Z,1.90
2019-05-29T12:19:27.565Z,1.90
2019-05-29T12:20:29.057Z,1.80
2019-05-29T12:21:27.507Z,1.70
2019-05-29T12:22:27.565Z,1.60
2019-05-29T12:23:27.458Z,1.30
2019-05-29T12:24:27.475Z,1.50
2019-05-29T12:25:27.390Z,1.80
2019-05-29T12:26:27.391Z,1.70
2019-05-29T12:27:27.355Z,2.70
2019-05-29T12:28:27.322Z,1.70
2019-05-29T12:29:27.310Z,1.80
2019-05-29T12:30:27.260Z,1.20
2019-05-29T12:31:27.298Z,1.60
2019-05-29T12:32:27.206Z,1.60
2019-05-29T12:33:27.261Z,1.50
2019-05-29T12:34:28.244Z,1.40
2019-05-29T12:35:27.141Z,1.50
2019-05-29T12:36:27.123Z,1.60
2019-05-29T12:37:27.140Z,1.50
2019-05-29T12:38:27.057Z,1.20
2019-05-29T12:39:27.049Z,1.30
2019-05-29T12:40:27.032Z,1.60
2019-05-29T12:41:27.070Z,1.40
2019-05-29T12:42:26.975Z,1.30
2019-05-29T12:43:34.767Z,1.20
2019-05-29T12:44:26.885Z,1.50
2019-05-29T12:45:26.890Z,2.00
2019-05-29T12:46:26.825Z,2.10
2019-05-29T12:47:26.906Z,2.20
2019-05-29T12:48:26.798Z,1.80
2019-05-29T12:49:42.786Z,1.50
2019-05-29T12:50:26.753Z,1.50
2019-05-29T12:52:26.672Z,1.80
2019-05-29T12:53:30.779Z,1.70
2019-05-29T12:54:26.627Z,3.10
2019-05-29T12:55:26.646Z,1.60
2019-05-29T12:56:26.562Z,1.90
2019-05-29T12:57:33.312Z,1.70
2019-05-29T12:58:26.552Z,1.30
2019-05-29T12:59:47.509Z,1.40
2019-05-29T13:00:26.460Z,1.20
2019-05-29T13:01:26.481Z,1.40
2019-05-29T13:02:26.399Z,1.60
2019-05-29T13:03:27.477Z,1.40
2019-05-29T13:04:26.367Z,1.40
2019-05-29T13:05:33.274Z,1.50
2019-05-29T13:06:26.353Z,1.60
2019-05-29T13:07:26.323Z,1.20
2019-05-29T13:08:26.261Z,1.40
2019-05-29T13:09:27.262Z,1.30
2019-05-29T13:10:30.452Z,1.00
2019-05-29T13:11:26.183Z,1.10
2019-05-29T13:12:26.154Z,1.50
2019-05-29T13:13:26.114Z,1.10
2019-05-29T13:14:26.186Z,1.30
2019-05-29T13:15:26.065Z,1.20
2019-05-29T13:16:26.076Z,1.30
2019-05-29T13:17:26.012Z,1.40
2019-05-29T13:18:25.974Z,1.10
2019-05-29T13:19:26.013Z,1.50